Terminal Aerodrome Forecast
Issued by NWS Spokane, WA

Home | Current Version | Previous Version | Text Only | Print | Product List | Glossary On
Versions: 1 2 3 4 5 6 7 8 9 10 11 12 13 14
000
FTUS46 KOTX 301138
TAFLWS
TAF
KLWS 301138Z 3012/3112 29007KT P6SM BKN045 BKN100
     FM302000 30010KT P6SM VCSH BKN050 BKN100
     FM302200 29011G16KT P6SM -SHRA BKN050 BKN120
     FM310100 29006KT P6SM SCT050 BKN100
     FM310600 VRB03KT P6SM FEW060 SCT120=

USA.gov is the U.S. government's official web portal to all federal, state and local government web resources and services.